KPAE/PAE METAR and TAF weather

Enter ICAO airport designator
Station Type Date Time Source
KPAE METAR 2021/09/24 01:53 UTC NOAA

KPAE 240153Z 34004KT 10SM CLR 16/11 A3027 RMK AO2 SLP250 T01560106


Station Type Date Time Source
KPAE Decoded METAR 2021/09/24 01:53 UTC NOAA

EVERETT SNOHOMISH COUNTY, WA, United States (KPAE) 47-55N 122-17W 180M
Sep 23, 2021 - 09:53 PM EDT / 2021.09.24 0153 UTC
Wind: from the NNW (340 degrees) at 5 MPH (4 KT):0
Visibility: 10 mile(s):0
Sky conditions: clear
Temperature: 60.1 F (15.6 C)
Dew Point: 51.1 F (10.6 C)
Relative Humidity: 72%
Pressure (altimeter): 30.27 in. Hg (1025 hPa)
ob: KPAE 240153Z 34004KT 10SM CLR 16/11 A3027 RMK AO2 SLP250 T01560106
cycle: 2

Station Type Date Time Source
KPAE TAF 2021/09/23 18:22 UTC NOAA

TAF KPAE 231720Z 2318/2418 34006KT P6SM SCT027
FM232000 33005KT P6SM OVC050
FM232200 33004KT P6SM BKN250
FM241200 02005KT P6SM BKN250

Example: see airport list